sensor_id;sensor_type;location;lat;lon;timestamp;P1;durP1;ratioP1;P2;durP2;ratioP2
21955;SDS011;11142;49.930;8.606;2024-03-29T00:02:12;4.38;;;0.95;;
21955;SDS011;11142;49.930;8.606;2024-03-29T00:04:39;3.08;;;0.93;;
21955;SDS011;11142;49.930;8.606;2024-03-29T00:07:15;1.33;;;0.90;;
21955;SDS011;11142;49.930;8.606;2024-03-29T00:09:52;6.30;;;0.90;;
21955;SDS011;11142;49.930;8.606;2024-03-29T00:12:22;3.92;;;1.13;;
21955;SDS011;11142;49.930;8.606;2024-03-29T00:14:51;1.40;;;0.90;;
21955;SDS011;11142;49.930;8.606;2024-03-29T00:17:20;4.63;;;0.95;;
21955;SDS011;11142;49.930;8.606;2024-03-29T00:19:46;5.72;;;1.08;;
21955;SDS011;11142;49.930;8.606;2024-03-29T00:22:13;2.55;;;0.95;;
21955;SDS011;11142;49.930;8.606;2024-03-29T00:24:39;1.02;;;0.90;;
21955;SDS011;11142;49.930;8.606;2024-03-29T00:27:05;7.47;;;1.25;;
21955;SDS011;11142;49.930;8.606;2024-03-29T00:29:31;1.42;;;1.02;;
21955;SDS011;11142;49.930;8.606;2024-03-29T00:31:59;6.00;;;1.38;;
21955;SDS011;11142;49.930;8.606;2024-03-29T00:34:26;3.45;;;1.52;;
21955;SDS011;11142;49.930;8.606;2024-03-29T00:36:53;1.60;;;0.90;;
21955;SDS011;11142;49.930;8.606;2024-03-29T00:39:19;1.63;;;0.93;;
21955;SDS011;11142;49.930;8.606;2024-03-29T00:41:46;2.72;;;0.93;;
21955;SDS011;11142;49.930;8.606;2024-03-29T00:44:12;3.28;;;0.85;;
21955;SDS011;11142;49.930;8.606;2024-03-29T00:46:40;4.07;;;1.73;;
21955;SDS011;11142;49.930;8.606;2024-03-29T00:49:06;4.07;;;1.08;;
21955;SDS011;11142;49.930;8.606;2024-03-29T00:51:34;3.08;;;1.13;;
21955;SDS011;11142;49.930;8.606;2024-03-29T00:54:01;10.48;;;3.55;;
21955;SDS011;11142;49.930;8.606;2024-03-29T00:56:27;4.03;;;1.70;;
21955;SDS011;11142;49.930;8.606;2024-03-29T00:58:53;2.55;;;1.00;;
21955;SDS011;11142;49.930;8.606;2024-03-29T01:01:19;1.98;;;1.10;;
21955;SDS011;11142;49.930;8.606;2024-03-29T01:03:46;1.40;;;1.00;;
21955;SDS011;11142;49.930;8.606;2024-03-29T01:06:13;1.58;;;0.82;;
21955;SDS011;11142;49.930;8.606;2024-03-29T01:08:44;2.20;;;1.10;;
21955;SDS011;11142;49.930;8.606;2024-03-29T01:11:10;6.50;;;1.15;;
21955;SDS011;11142;49.930;8.606;2024-03-29T01:13:36;2.72;;;1.08;;
21955;SDS011;11142;49.930;8.606;2024-03-29T01:16:04;2.00;;;0.75;;
21955;SDS011;11142;49.930;8.606;2024-03-29T01:18:31;1.92;;;1.10;;
21955;SDS011;11142;49.930;8.606;2024-03-29T01:20:57;3.72;;;1.08;;
21955;SDS011;11142;49.930;8.606;2024-03-29T01:23:27;2.85;;;1.10;;
21955;SDS011;11142;49.930;8.606;2024-03-29T01:25:54;4.75;;;1.38;;
21955;SDS011;11142;49.930;8.606;2024-03-29T01:28:21;1.95;;;0.70;;
21955;SDS011;11142;49.930;8.606;2024-03-29T01:30:51;2.97;;;1.15;;
21955;SDS011;11142;49.930;8.606;2024-03-29T01:33:17;4.88;;;1.10;;
21955;SDS011;11142;49.930;8.606;2024-03-29T01:35:44;6.82;;;0.98;;
21955;SDS011;11142;49.930;8.606;2024-03-29T01:38:10;2.22;;;1.08;;
21955;SDS011;11142;49.930;8.606;2024-03-29T01:40:36;5.10;;;1.00;;
21955;SDS011;11142;49.930;8.606;2024-03-29T01:43:03;2.42;;;0.80;;
21955;SDS011;11142;49.930;8.606;2024-03-29T01:45:30;1.35;;;0.80;;
21955;SDS011;11142;49.930;8.606;2024-03-29T01:47:58;1.65;;;0.93;;
21955;SDS011;11142;49.930;8.606;2024-03-29T01:50:25;3.28;;;0.82;;
21955;SDS011;11142;49.930;8.606;2024-03-29T01:52:53;1.17;;;0.52;;
21955;SDS011;11142;49.930;8.606;2024-03-29T01:55:20;4.82;;;0.90;;
21955;SDS011;11142;49.930;8.606;2024-03-29T01:57:47;1.52;;;0.98;;
21955;SDS011;11142;49.930;8.606;2024-03-29T02:00:18;2.25;;;0.80;;
21955;SDS011;11142;49.930;8.606;2024-03-29T02:02:45;2.65;;;1.00;;
21955;SDS011;11142;49.930;8.606;2024-03-29T02:05:14;2.95;;;0.90;;
21955;SDS011;11142;49.930;8.606;2024-03-29T02:07:42;3.75;;;0.88;;
21955;SDS011;11142;49.930;8.606;2024-03-29T02:10:13;3.22;;;0.90;;
21955;SDS011;11142;49.930;8.606;2024-03-29T02:12:45;4.80;;;1.10;;
21955;SDS011;11142;49.930;8.606;2024-03-29T02:15:14;1.10;;;0.73;;
21955;SDS011;11142;49.930;8.606;2024-03-29T02:17:44;8.02;;;1.52;;
21955;SDS011;11142;49.930;8.606;2024-03-29T02:20:11;2.42;;;1.08;;
21955;SDS011;11142;49.930;8.606;2024-03-29T02:22:40;2.15;;;1.00;;
21955;SDS011;11142;49.930;8.606;2024-03-29T02:25:16;1.90;;;1.00;;
21955;SDS011;11142;49.930;8.606;2024-03-29T02:27:44;6.15;;;1.30;;
21955;SDS011;11142;49.930;8.606;2024-03-29T02:30:14;5.05;;;1.27;;
21955;SDS011;11142;49.930;8.606;2024-03-29T02:32:42;1.50;;;0.82;;
21955;SDS011;11142;49.930;8.606;2024-03-29T02:35:09;2.60;;;1.00;;
21955;SDS011;11142;49.930;8.606;2024-03-29T02:37:37;2.38;;;1.20;;
21955;SDS011;11142;49.930;8.606;2024-03-29T02:40:05;3.28;;;1.35;;
21955;SDS011;11142;49.930;8.606;2024-03-29T02:42:35;4.47;;;1.38;;
21955;SDS011;11142;49.930;8.606;2024-03-29T02:45:03;7.32;;;1.38;;
21955;SDS011;11142;49.930;8.606;2024-03-29T02:47:29;2.13;;;1.05;;
21955;SDS011;11142;49.930;8.606;2024-03-29T02:49:58;2.08;;;1.10;;
21955;SDS011;11142;49.930;8.606;2024-03-29T02:52:24;2.00;;;1.25;;
21955;SDS011;11142;49.930;8.606;2024-03-29T02:54:51;4.53;;;1.30;;
21955;SDS011;11142;49.930;8.606;2024-03-29T02:57:18;4.35;;;1.30;;
21955;SDS011;11142;49.930;8.606;2024-03-29T02:59:49;2.25;;;1.23;;
21955;SDS011;11142;49.930;8.606;2024-03-29T03:02:15;3.13;;;1.48;;
21955;SDS011;11142;49.930;8.606;2024-03-29T03:04:45;2.80;;;1.10;;
21955;SDS011;11142;49.930;8.606;2024-03-29T03:07:11;2.13;;;1.45;;
21955;SDS011;11142;49.930;8.606;2024-03-29T03:09:58;4.90;;;2.30;;
21955;SDS011;11142;49.930;8.606;2024-03-29T03:12:43;3.97;;;1.20;;
21955;SDS011;11142;49.930;8.606;2024-03-29T03:15:12;2.42;;;1.40;;
21955;SDS011;11142;49.930;8.606;2024-03-29T03:17:39;8.15;;;1.42;;
21955;SDS011;11142;49.930;8.606;2024-03-29T03:20:07;3.38;;;1.35;;
21955;SDS011;11142;49.930;8.606;2024-03-29T03:22:34;4.38;;;1.40;;
21955;SDS011;11142;49.930;8.606;2024-03-29T03:25:02;4.43;;;1.52;;
21955;SDS011;11142;49.930;8.606;2024-03-29T03:27:29;3.75;;;1.60;;
21955;SDS011;11142;49.930;8.606;2024-03-29T03:29:56;3.00;;;1.02;;
21955;SDS011;11142;49.930;8.606;2024-03-29T03:32:25;3.22;;;1.20;;
21955;SDS011;11142;49.930;8.606;2024-03-29T03:34:52;5.97;;;1.42;;
21955;SDS011;11142;49.930;8.606;2024-03-29T03:37:19;2.60;;;1.23;;
21955;SDS011;11142;49.930;8.606;2024-03-29T03:39:45;2.45;;;1.23;;
21955;SDS011;11142;49.930;8.606;2024-03-29T03:42:14;3.78;;;1.70;;
21955;SDS011;11142;49.930;8.606;2024-03-29T03:44:41;3.85;;;1.33;;
21955;SDS011;11142;49.930;8.606;2024-03-29T03:47:08;2.60;;;1.13;;
21955;SDS011;11142;49.930;8.606;2024-03-29T03:49:36;2.55;;;1.40;;
21955;SDS011;11142;49.930;8.606;2024-03-29T03:52:05;2.53;;;1.10;;
21955;SDS011;11142;49.930;8.606;2024-03-29T03:54:31;4.45;;;1.90;;
21955;SDS011;11142;49.930;8.606;2024-03-29T03:56:58;2.03;;;1.33;;
21955;SDS011;11142;49.930;8.606;2024-03-29T03:59:25;3.65;;;1.55;;
21955;SDS011;11142;49.930;8.606;2024-03-29T04:01:51;4.80;;;1.35;;
21955;SDS011;11142;49.930;8.606;2024-03-29T04:04:19;3.45;;;1.65;;
21955;SDS011;11142;49.930;8.606;2024-03-29T04:06:48;4.18;;;1.33;;
21955;SDS011;11142;49.930;8.606;2024-03-29T04:09:14;2.55;;;1.45;;
21955;SDS011;11142;49.930;8.606;2024-03-29T04:11:41;3.28;;;1.45;;
21955;SDS011;11142;49.930;8.606;2024-03-29T04:14:07;4.35;;;1.40;;
21955;SDS011;11142;49.930;8.606;2024-03-29T04:16:35;7.85;;;1.85;;
21955;SDS011;11142;49.930;8.606;2024-03-29T04:19:02;2.90;;;1.40;;
21955;SDS011;11142;49.930;8.606;2024-03-29T04:21:28;4.75;;;1.58;;
21955;SDS011;11142;49.930;8.606;2024-03-29T04:23:56;2.60;;;1.60;;
21955;SDS011;11142;49.930;8.606;2024-03-29T04:26:23;5.35;;;1.35;;
21955;SDS011;11142;49.930;8.606;2024-03-29T04:28:49;3.53;;;1.35;;
21955;SDS011;11142;49.930;8.606;2024-03-29T04:31:16;2.53;;;1.48;;
21955;SDS011;11142;49.930;8.606;2024-03-29T04:33:43;2.35;;;1.30;;
21955;SDS011;11142;49.930;8.606;2024-03-29T04:36:11;4.75;;;1.20;;
21955;SDS011;11142;49.930;8.606;2024-03-29T04:38:38;2.33;;;1.20;;
21955;SDS011;11142;49.930;8.606;2024-03-29T04:41:06;2.13;;;1.50;;
21955;SDS011;11142;49.930;8.606;2024-03-29T04:43:33;2.58;;;1.25;;
21955;SDS011;11142;49.930;8.606;2024-03-29T04:46:04;1.60;;;1.50;;
21955;SDS011;11142;49.930;8.606;2024-03-29T04:48:36;2.55;;;1.52;;
21955;SDS011;11142;49.930;8.606;2024-03-29T04:51:03;4.93;;;1.60;;
21955;SDS011;11142;49.930;8.606;2024-03-29T04:53:30;4.70;;;1.55;;
21955;SDS011;11142;49.930;8.606;2024-03-29T04:55:58;2.47;;;1.35;;
21955;SDS011;11142;49.930;8.606;2024-03-29T04:58:27;1.55;;;1.10;;
21955;SDS011;11142;49.930;8.606;2024-03-29T05:01:02;6.05;;;1.52;;
21955;SDS011;11142;49.930;8.606;2024-03-29T05:03:30;4.20;;;1.50;;
21955;SDS011;11142;49.930;8.606;2024-03-29T05:05:57;2.08;;;1.33;;
21955;SDS011;11142;49.930;8.606;2024-03-29T05:08:25;3.15;;;1.48;;
21955;SDS011;11142;49.930;8.606;2024-03-29T05:10:53;3.22;;;1.55;;
21955;SDS011;11142;49.930;8.606;2024-03-29T05:13:22;2.67;;;1.52;;
21955;SDS011;11142;49.930;8.606;2024-03-29T05:15:51;5.05;;;1.30;;
21955;SDS011;11142;49.930;8.606;2024-03-29T05:18:23;3.72;;;1.52;;
21955;SDS011;11142;49.930;8.606;2024-03-29T05:20:50;5.00;;;1.17;;
21955;SDS011;11142;49.930;8.606;2024-03-29T05:23:17;3.88;;;1.50;;
21955;SDS011;11142;49.930;8.606;2024-03-29T05:25:47;3.97;;;1.60;;
21955;SDS011;11142;49.930;8.606;2024-03-29T05:28:15;4.38;;;1.23;;
21955;SDS011;11142;49.930;8.606;2024-03-29T05:30:45;2.88;;;1.50;;
21955;SDS011;11142;49.930;8.606;2024-03-29T05:33:14;4.38;;;1.58;;
21955;SDS011;11142;49.930;8.606;2024-03-29T05:35:42;1.90;;;1.23;;
21955;SDS011;11142;49.930;8.606;2024-03-29T05:38:09;2.63;;;1.40;;
21955;SDS011;11142;49.930;8.606;2024-03-29T05:40:38;3.80;;;1.58;;
21955;SDS011;11142;49.930;8.606;2024-03-29T05:43:06;5.65;;;1.73;;
21955;SDS011;11142;49.930;8.606;2024-03-29T05:45:33;6.80;;;1.30;;
21955;SDS011;11142;49.930;8.606;2024-03-29T05:48:01;7.80;;;1.77;;
21955;SDS011;11142;49.930;8.606;2024-03-29T05:50:30;2.75;;;1.20;;
21955;SDS011;11142;49.930;8.606;2024-03-29T05:52:59;5.38;;;1.60;;
21955;SDS011;11142;49.930;8.606;2024-03-29T05:55:26;4.30;;;1.10;;
21955;SDS011;11142;49.930;8.606;2024-03-29T05:57:54;2.63;;;1.02;;
21955;SDS011;11142;49.930;8.606;2024-03-29T06:00:22;4.35;;;1.35;;
21955;SDS011;11142;49.930;8.606;2024-03-29T06:02:50;1.63;;;1.10;;
21955;SDS011;11142;49.930;8.606;2024-03-29T06:05:18;4.10;;;1.23;;
21955;SDS011;11142;49.930;8.606;2024-03-29T06:07:48;1.17;;;0.80;;
21955;SDS011;11142;49.930;8.606;2024-03-29T06:10:17;1.33;;;0.82;;
21955;SDS011;11142;49.930;8.606;2024-03-29T06:12:44;2.42;;;1.00;;
21955;SDS011;11142;49.930;8.606;2024-03-29T06:15:11;3.55;;;0.98;;
21955;SDS011;11142;49.930;8.606;2024-03-29T06:17:56;3.53;;;1.20;;
21955;SDS011;11142;49.930;8.606;2024-03-29T06:20:24;1.17;;;0.80;;
21955;SDS011;11142;49.930;8.606;2024-03-29T06:22:52;1.80;;;0.73;;
21955;SDS011;11142;49.930;8.606;2024-03-29T06:25:19;2.15;;;1.02;;
21955;SDS011;11142;49.930;8.606;2024-03-29T06:27:46;3.75;;;1.10;;
21955;SDS011;11142;49.930;8.606;2024-03-29T06:30:14;2.83;;;1.08;;
21955;SDS011;11142;49.930;8.606;2024-03-29T06:32:42;2.90;;;1.00;;
21955;SDS011;11142;49.930;8.606;2024-03-29T06:35:11;2.47;;;0.85;;
21955;SDS011;11142;49.930;8.606;2024-03-29T06:37:38;2.20;;;0.75;;
21955;SDS011;11142;49.930;8.606;2024-03-29T06:40:11;3.30;;;0.75;;
21955;SDS011;11142;49.930;8.606;2024-03-29T06:42:38;2.25;;;1.02;;
21955;SDS011;11142;49.930;8.606;2024-03-29T06:45:05;1.30;;;0.80;;
21955;SDS011;11142;49.930;8.606;2024-03-29T06:47:34;2.35;;;1.15;;
21955;SDS011;11142;49.930;8.606;2024-03-29T06:50:01;4.55;;;1.02;;
21955;SDS011;11142;49.930;8.606;2024-03-29T06:52:29;3.40;;;1.13;;
21955;SDS011;11142;49.930;8.606;2024-03-29T06:54:58;2.17;;;1.25;;
21955;SDS011;11142;49.930;8.606;2024-03-29T06:57:26;1.45;;;1.05;;
21955;SDS011;11142;49.930;8.606;2024-03-29T06:59:57;2.42;;;1.20;;
21955;SDS011;11142;49.930;8.606;2024-03-29T07:02:24;2.35;;;1.23;;
21955;SDS011;11142;49.930;8.606;2024-03-29T07:04:52;3.20;;;1.45;;
21955;SDS011;11142;49.930;8.606;2024-03-29T07:07:21;3.17;;;1.10;;
21955;SDS011;11142;49.930;8.606;2024-03-29T07:09:48;1.52;;;1.00;;
21955;SDS011;11142;49.930;8.606;2024-03-29T07:12:16;2.40;;;0.75;;
21955;SDS011;11142;49.930;8.606;2024-03-29T07:14:45;1.65;;;1.17;;
21955;SDS011;11142;49.930;8.606;2024-03-29T07:17:12;2.80;;;1.40;;
21955;SDS011;11142;49.930;8.606;2024-03-29T07:19:39;2.50;;;1.30;;
21955;SDS011;11142;49.930;8.606;2024-03-29T07:22:06;2.20;;;1.35;;
21955;SDS011;11142;49.930;8.606;2024-03-29T07:24:33;5.72;;;0.98;;
21955;SDS011;11142;49.930;8.606;2024-03-29T07:27:01;5.03;;;1.48;;
21955;SDS011;11142;49.930;8.606;2024-03-29T07:29:30;2.60;;;0.75;;
21955;SDS011;11142;49.930;8.606;2024-03-29T07:32:00;2.25;;;1.05;;
21955;SDS011;11142;49.930;8.606;2024-03-29T07:34:28;3.63;;;1.20;;
21955;SDS011;11142;49.930;8.606;2024-03-29T07:36:55;2.00;;;1.25;;
21955;SDS011;11142;49.930;8.606;2024-03-29T07:39:24;4.43;;;1.83;;
21955;SDS011;11142;49.930;8.606;2024-03-29T07:41:51;3.22;;;1.40;;
21955;SDS011;11142;49.930;8.606;2024-03-29T07:44:19;2.60;;;1.10;;
21955;SDS011;11142;49.930;8.606;2024-03-29T07:46:47;9.15;;;3.65;;
21955;SDS011;11142;49.930;8.606;2024-03-29T07:49:15;3.38;;;2.17;;
21955;SDS011;11142;49.930;8.606;2024-03-29T07:51:47;3.97;;;1.95;;
21955;SDS011;11142;49.930;8.606;2024-03-29T07:54:14;2.42;;;1.40;;
21955;SDS011;11142;49.930;8.606;2024-03-29T07:56:41;2.80;;;1.35;;
21955;SDS011;11142;49.930;8.606;2024-03-29T07:59:08;4.15;;;1.40;;
21955;SDS011;11142;49.930;8.606;2024-03-29T08:01:35;3.95;;;1.52;;
21955;SDS011;11142;49.930;8.606;2024-03-29T08:04:03;2.80;;;1.27;;
21955;SDS011;11142;49.930;8.606;2024-03-29T08:06:32;7.07;;;1.40;;
21955;SDS011;11142;49.930;8.606;2024-03-29T08:08:59;2.20;;;1.40;;
21955;SDS011;11142;49.930;8.606;2024-03-29T08:11:26;5.60;;;1.10;;
21955;SDS011;11142;49.930;8.606;2024-03-29T08:13:53;5.03;;;1.42;;
21955;SDS011;11142;49.930;8.606;2024-03-29T08:16:20;5.32;;;1.63;;
21955;SDS011;11142;49.930;8.606;2024-03-29T08:18:47;2.70;;;1.35;;
21955;SDS011;11142;49.930;8.606;2024-03-29T08:21:15;2.88;;;1.58;;
21955;SDS011;11142;49.930;8.606;2024-03-29T08:23:46;7.88;;;2.90;;
21955;SDS011;11142;49.930;8.606;2024-03-29T08:26:13;5.65;;;2.40;;
21955;SDS011;11142;49.930;8.606;2024-03-29T08:28:40;6.38;;;2.17;;
21955;SDS011;11142;49.930;8.606;2024-03-29T08:31:08;5.68;;;2.58;;
21955;SDS011;11142;49.930;8.606;2024-03-29T08:33:35;2.63;;;1.60;;
21955;SDS011;11142;49.930;8.606;2024-03-29T08:36:05;8.50;;;1.58;;
21955;SDS011;11142;49.930;8.606;2024-03-29T08:38:33;5.32;;;1.63;;
21955;SDS011;11142;49.930;8.606;2024-03-29T08:41:03;6.88;;;3.03;;
21955;SDS011;11142;49.930;8.606;2024-03-29T08:43:34;4.97;;;2.67;;
21955;SDS011;11142;49.930;8.606;2024-03-29T08:46:01;9.55;;;3.90;;
21955;SDS011;11142;49.930;8.606;2024-03-29T08:48:29;4.13;;;3.10;;
21955;SDS011;11142;49.930;8.606;2024-03-29T08:50:56;6.75;;;3.17;;
21955;SDS011;11142;49.930;8.606;2024-03-29T08:53:23;5.70;;;3.53;;
21955;SDS011;11142;49.930;8.606;2024-03-29T08:55:52;5.80;;;3.22;;
21955;SDS011;11142;49.930;8.606;2024-03-29T08:58:23;9.60;;;4.30;;
21955;SDS011;11142;49.930;8.606;2024-03-29T09:00:53;13.23;;;5.65;;
21955;SDS011;11142;49.930;8.606;2024-03-29T09:03:21;11.15;;;4.40;;
21955;SDS011;11142;49.930;8.606;2024-03-29T09:05:48;9.88;;;4.40;;
21955;SDS011;11142;49.930;8.606;2024-03-29T09:08:16;5.90;;;3.80;;
21955;SDS011;11142;49.930;8.606;2024-03-29T09:10:45;4.78;;;2.70;;
21955;SDS011;11142;49.930;8.606;2024-03-29T09:13:12;9.77;;;3.60;;
21955;SDS011;11142;49.930;8.606;2024-03-29T09:15:41;5.20;;;2.83;;
21955;SDS011;11142;49.930;8.606;2024-03-29T09:18:08;6.65;;;3.75;;
21955;SDS011;11142;49.930;8.606;2024-03-29T09:20:43;6.07;;;3.10;;
21955;SDS011;11142;49.930;8.606;2024-03-29T09:23:11;10.18;;;2.70;;
21955;SDS011;11142;49.930;8.606;2024-03-29T09:25:42;6.50;;;4.22;;
21955;SDS011;11142;49.930;8.606;2024-03-29T09:28:09;5.68;;;2.65;;
21955;SDS011;11142;49.930;8.606;2024-03-29T09:30:36;4.97;;;2.97;;
21955;SDS011;11142;49.930;8.606;2024-03-29T09:33:05;7.45;;;3.33;;
21955;SDS011;11142;49.930;8.606;2024-03-29T09:35:35;7.25;;;2.92;;
21955;SDS011;11142;49.930;8.606;2024-03-29T09:38:03;5.20;;;3.70;;
21955;SDS011;11142;49.930;8.606;2024-03-29T09:40:31;7.50;;;4.45;;
21955;SDS011;11142;49.930;8.606;2024-03-29T09:42:59;6.25;;;3.33;;
21955;SDS011;11142;49.930;8.606;2024-03-29T09:45:31;6.00;;;3.38;;
21955;SDS011;11142;49.930;8.606;2024-03-29T09:48:02;6.35;;;2.60;;
21955;SDS011;11142;49.930;8.606;2024-03-29T09:50:33;6.43;;;3.40;;
21955;SDS011;11142;49.930;8.606;2024-03-29T09:53:06;8.57;;;2.80;;
21955;SDS011;11142;49.930;8.606;2024-03-29T09:55:34;7.88;;;3.33;;
21955;SDS011;11142;49.930;8.606;2024-03-29T09:58:03;5.70;;;2.47;;
21955;SDS011;11142;49.930;8.606;2024-03-29T10:00:32;6.53;;;2.63;;
21955;SDS011;11142;49.930;8.606;2024-03-29T10:02:59;7.72;;;2.55;;
21955;SDS011;11142;49.930;8.606;2024-03-29T10:05:28;4.07;;;2.50;;
21955;SDS011;11142;49.930;8.606;2024-03-29T10:07:57;2.95;;;1.80;;
21955;SDS011;11142;49.930;8.606;2024-03-29T10:10:30;2.67;;;1.80;;
21955;SDS011;11142;49.930;8.606;2024-03-29T10:12:58;4.85;;;1.65;;
21955;SDS011;11142;49.930;8.606;2024-03-29T10:15:25;2.90;;;1.48;;
21955;SDS011;11142;49.930;8.606;2024-03-29T10:17:54;1.38;;;0.95;;
21955;SDS011;11142;49.930;8.606;2024-03-29T10:20:23;2.58;;;0.95;;
21955;SDS011;11142;49.930;8.606;2024-03-29T10:22:56;2.10;;;1.20;;
21955;SDS011;11142;49.930;8.606;2024-03-29T10:25:31;1.77;;;1.17;;
21955;SDS011;11142;49.930;8.606;2024-03-29T10:27:58;1.55;;;1.05;;
21955;SDS011;11142;49.930;8.606;2024-03-29T10:30:27;5.82;;;3.13;;
21955;SDS011;11142;49.930;8.606;2024-03-29T10:32:55;11.15;;;6.18;;
21955;SDS011;11142;49.930;8.606;2024-03-29T10:35:25;10.90;;;6.28;;
21955;SDS011;11142;49.930;8.606;2024-03-29T10:37:56;4.07;;;2.70;;
21955;SDS011;11142;49.930;8.606;2024-03-29T10:40:27;2.67;;;1.60;;
21955;SDS011;11142;49.930;8.606;2024-03-29T10:42:55;2.63;;;1.40;;
21955;SDS011;11142;49.930;8.606;2024-03-29T10:45:23;3.88;;;1.60;;
21955;SDS011;11142;49.930;8.606;2024-03-29T10:47:51;1.67;;;1.40;;
21955;SDS011;11142;49.930;8.606;2024-03-29T10:50:19;2.38;;;1.30;;
21955;SDS011;11142;49.930;8.606;2024-03-29T10:52:47;2.92;;;1.20;;
21955;SDS011;11142;49.930;8.606;2024-03-29T10:55:16;3.20;;;1.50;;
21955;SDS011;11142;49.930;8.606;2024-03-29T10:57:44;2.05;;;1.20;;
21955;SDS011;11142;49.930;8.606;2024-03-29T11:00:15;2.65;;;1.20;;
21955;SDS011;11142;49.930;8.606;2024-03-29T11:02:48;5.00;;;1.30;;
21955;SDS011;11142;49.930;8.606;2024-03-29T11:05:17;3.33;;;1.60;;
21955;SDS011;11142;49.930;8.606;2024-03-29T11:07:44;3.22;;;1.27;;
21955;SDS011;11142;49.930;8.606;2024-03-29T11:10:13;2.00;;;1.35;;
21955;SDS011;11142;49.930;8.606;2024-03-29T11:12:47;2.17;;;1.27;;
21955;SDS011;11142;49.930;8.606;2024-03-29T11:15:24;2.80;;;1.48;;
21955;SDS011;11142;49.930;8.606;2024-03-29T11:17:56;1.33;;;1.10;;
21955;SDS011;11142;49.930;8.606;2024-03-29T11:20:24;3.20;;;1.63;;
21955;SDS011;11142;49.930;8.606;2024-03-29T11:23:01;2.10;;;1.20;;
21955;SDS011;11142;49.930;8.606;2024-03-29T11:25:38;1.58;;;1.05;;
21955;SDS011;11142;49.930;8.606;2024-03-29T11:28:07;1.25;;;1.02;;
21955;SDS011;11142;49.930;8.606;2024-03-29T11:30:39;1.63;;;1.10;;
21955;SDS011;11142;49.930;8.606;2024-03-29T11:33:26;1.58;;;1.05;;
21955;SDS011;11142;49.930;8.606;2024-03-29T11:35:54;2.63;;;1.02;;
21955;SDS011;11142;49.930;8.606;2024-03-29T11:38:22;1.30;;;0.90;;
21955;SDS011;11142;49.930;8.606;2024-03-29T11:41:00;1.73;;;0.80;;
21955;SDS011;11142;49.930;8.606;2024-03-29T11:43:30;3.33;;;1.05;;
21955;SDS011;11142;49.930;8.606;2024-03-29T11:45:57;2.00;;;0.90;;
21955;SDS011;11142;49.930;8.606;2024-03-29T11:48:26;1.50;;;1.02;;
21955;SDS011;11142;49.930;8.606;2024-03-29T11:50:54;1.40;;;1.05;;
21955;SDS011;11142;49.930;8.606;2024-03-29T11:53:22;2.30;;;1.35;;
21955;SDS011;11142;49.930;8.606;2024-03-29T11:55:49;0.80;;;0.75;;
21955;SDS011;11142;49.930;8.606;2024-03-29T11:58:19;2.97;;;1.27;;
21955;SDS011;11142;49.930;8.606;2024-03-29T12:00:52;3.83;;;1.17;;
21955;SDS011;11142;49.930;8.606;2024-03-29T12:03:21;1.98;;;1.42;;
21955;SDS011;11142;49.930;8.606;2024-03-29T12:05:49;3.15;;;2.10;;
21955;SDS011;11142;49.930;8.606;2024-03-29T12:08:19;4.43;;;1.90;;
21955;SDS011;11142;49.930;8.606;2024-03-29T12:10:47;2.47;;;1.60;;
21955;SDS011;11142;49.930;8.606;2024-03-29T12:13:15;2.08;;;1.50;;
21955;SDS011;11142;49.930;8.606;2024-03-29T12:15:43;2.83;;;2.00;;
21955;SDS011;11142;49.930;8.606;2024-03-29T12:18:12;5.72;;;2.08;;
21955;SDS011;11142;49.930;8.606;2024-03-29T12:20:42;2.38;;;1.60;;
21955;SDS011;11142;49.930;8.606;2024-03-29T12:23:12;4.60;;;1.70;;
21955;SDS011;11142;49.930;8.606;2024-03-29T12:25:40;2.30;;;1.60;;
21955;SDS011;11142;49.930;8.606;2024-03-29T12:28:07;2.22;;;1.48;;
21955;SDS011;11142;49.930;8.606;2024-03-29T12:30:34;1.67;;;1.40;;
21955;SDS011;11142;49.930;8.606;2024-03-29T12:33:02;4.05;;;1.80;;
21955;SDS011;11142;49.930;8.606;2024-03-29T12:35:31;3.30;;;1.77;;
21955;SDS011;11142;49.930;8.606;2024-03-29T12:37:58;5.97;;;1.85;;
21955;SDS011;11142;49.930;8.606;2024-03-29T12:40:30;4.38;;;1.77;;
21955;SDS011;11142;49.930;8.606;2024-03-29T12:43:02;2.30;;;2.00;;
21955;SDS011;11142;49.930;8.606;2024-03-29T12:45:33;3.55;;;2.20;;
21955;SDS011;11142;49.930;8.606;2024-03-29T12:48:00;4.38;;;1.77;;
21955;SDS011;11142;49.930;8.606;2024-03-29T12:50:28;3.67;;;1.98;;
21955;SDS011;11142;49.930;8.606;2024-03-29T12:52:58;4.97;;;2.20;;
21955;SDS011;11142;49.930;8.606;2024-03-29T12:55:27;4.20;;;2.58;;
21955;SDS011;11142;49.930;8.606;2024-03-29T12:57:59;1.50;;;1.30;;
21955;SDS011;11142;49.930;8.606;2024-03-29T13:00:27;4.53;;;2.22;;
21955;SDS011;11142;49.930;8.606;2024-03-29T13:02:54;3.78;;;2.08;;
21955;SDS011;11142;49.930;8.606;2024-03-29T13:05:21;3.00;;;2.05;;
21955;SDS011;11142;49.930;8.606;2024-03-29T13:07:50;3.15;;;1.88;;
21955;SDS011;11142;49.930;8.606;2024-03-29T13:10:17;4.25;;;1.90;;
21955;SDS011;11142;49.930;8.606;2024-03-29T13:12:46;2.75;;;1.70;;
21955;SDS011;11142;49.930;8.606;2024-03-29T13:15:19;2.70;;;1.60;;
21955;SDS011;11142;49.930;8.606;2024-03-29T13:17:47;3.60;;;1.80;;
21955;SDS011;11142;49.930;8.606;2024-03-29T13:20:17;2.83;;;1.58;;
21955;SDS011;11142;49.930;8.606;2024-03-29T13:22:45;2.38;;;1.50;;
21955;SDS011;11142;49.930;8.606;2024-03-29T13:25:17;3.58;;;1.73;;
21955;SDS011;11142;49.930;8.606;2024-03-29T13:27:46;3.63;;;1.75;;
21955;SDS011;11142;49.930;8.606;2024-03-29T13:30:15;4.30;;;1.92;;
21955;SDS011;11142;49.930;8.606;2024-03-29T13:32:42;7.88;;;3.78;;
21955;SDS011;11142;49.930;8.606;2024-03-29T13:35:10;2.65;;;1.85;;
21955;SDS011;11142;49.930;8.606;2024-03-29T13:37:38;2.63;;;1.77;;
21955;SDS011;11142;49.930;8.606;2024-03-29T13:40:06;4.60;;;1.67;;
21955;SDS011;11142;49.930;8.606;2024-03-29T13:42:38;3.67;;;1.80;;
21955;SDS011;11142;49.930;8.606;2024-03-29T13:45:06;3.55;;;1.75;;
21955;SDS011;11142;49.930;8.606;2024-03-29T13:47:36;5.32;;;1.80;;
21955;SDS011;11142;49.930;8.606;2024-03-29T13:50:04;4.03;;;2.03;;
21955;SDS011;11142;49.930;8.606;2024-03-29T13:52:32;4.97;;;1.60;;
21955;SDS011;11142;49.930;8.606;2024-03-29T13:55:00;2.53;;;1.50;;
21955;SDS011;11142;49.930;8.606;2024-03-29T13:57:29;3.60;;;1.85;;
21955;SDS011;11142;49.930;8.606;2024-03-29T13:59:59;2.53;;;1.50;;
21955;SDS011;11142;49.930;8.606;2024-03-29T14:02:26;3.17;;;2.05;;
21955;SDS011;11142;49.930;8.606;2024-03-29T14:04:54;4.85;;;2.25;;
21955;SDS011;11142;49.930;8.606;2024-03-29T14:07:23;2.17;;;1.73;;
21955;SDS011;11142;49.930;8.606;2024-03-29T14:09:51;1.85;;;1.52;;
21955;SDS011;11142;49.930;8.606;2024-03-29T14:12:20;2.85;;;1.70;;
21955;SDS011;11142;49.930;8.606;2024-03-29T14:14:50;3.58;;;1.60;;
21955;SDS011;11142;49.930;8.606;2024-03-29T14:17:20;3.13;;;1.98;;
21955;SDS011;11142;49.930;8.606;2024-03-29T14:19:47;2.47;;;1.70;;
21955;SDS011;11142;49.930;8.606;2024-03-29T14:22:15;5.07;;;2.67;;
21955;SDS011;11142;49.930;8.606;2024-03-29T14:24:44;3.92;;;1.90;;
21955;SDS011;11142;49.930;8.606;2024-03-29T14:27:11;4.47;;;2.30;;
21955;SDS011;11142;49.930;8.606;2024-03-29T14:29:39;4.60;;;2.42;;
21955;SDS011;11142;49.930;8.606;2024-03-29T14:32:13;4.00;;;2.53;;
21955;SDS011;11142;49.930;8.606;2024-03-29T14:34:42;4.00;;;1.80;;
21955;SDS011;11142;49.930;8.606;2024-03-29T14:37:12;2.45;;;1.60;;
21955;SDS011;11142;49.930;8.606;2024-03-29T14:39:41;3.05;;;1.90;;
21955;SDS011;11142;49.930;8.606;2024-03-29T14:42:10;3.58;;;2.15;;
21955;SDS011;11142;49.930;8.606;2024-03-29T14:44:39;2.97;;;1.90;;
21955;SDS011;11142;49.930;8.606;2024-03-29T14:47:06;4.10;;;1.95;;
21955;SDS011;11142;49.930;8.606;2024-03-29T14:49:33;2.47;;;1.35;;
21955;SDS011;11142;49.930;8.606;2024-03-29T14:52:01;1.90;;;1.25;;
21955;SDS011;11142;49.930;8.606;2024-03-29T14:54:28;2.10;;;1.23;;
21955;SDS011;11142;49.930;8.606;2024-03-29T14:56:54;5.50;;;1.27;;